Time;durP1;ratioP1;P1;durP2;ratioP2;P2;SDS_P1;SDS_P2;PMS_P1;PMS_P2;Temp;Humidity;BMP_temperature;BMP_pressure;BME280_temperature;BME280_humidity;BME280_pressure;Samples;Min_cycle;Max_cycle;Signal;HPM_P1;HPM_P2
2022/02/23 00:01:15;;;;;;;5.93;1.40;;;;;;;0.92;87.82;98026.69;4995905;28;20049;-61
2022/02/23 00:03:41;;;;;;;5.68;1.48;;;;;;;1.04;88.03;98044.25;4963904;28;20052;-62
2022/02/23 00:06:07;;;;;;;5.10;1.20;;;;;;;1.03;88.19;98050.56;4995706;28;20052;-60
2022/02/23 00:08:33;;;;;;;4.97;1.40;;;;;;;1.05;87.85;98048.59;4979385;28;20046;-59
2022/02/23 00:10:59;;;;;;;6.03;1.30;;;;;;;1.07;88.68;98051.97;4995949;28;20124;-63
2022/02/23 00:13:27;;;;;;;5.80;1.70;;;;;;;1.03;87.71;98050.56;4997501;28;20438;-64
2022/02/23 00:15:54;;;;;;;5.05;1.38;;;;;;;1.01;87.85;98047.16;4995904;28;20042;-58
2022/02/23 00:18:20;;;;;;;6.43;1.20;;;;;;;1.03;88.17;98050.56;4963191;28;20134;-62
2022/02/23 00:20:46;;;;;;;5.53;1.23;;;;;;;1.04;87.69;98057.56;5012237;28;20100;-62
2022/02/23 00:23:12;;;;;;;6.45;1.40;;;;;;;1.01;88.14;98047.16;4980050;28;20065;-61
2022/02/23 00:25:38;;;;;;;6.45;1.40;;;;;;;1.03;87.94;98065.69;5011731;28;20050;-62
2022/02/23 00:28:04;;;;;;;4.53;1.30;;;;;;;1.04;87.89;98068.22;4995502;28;20034;-60
2022/02/23 00:30:30;;;;;;;5.35;1.55;;;;;;;0.88;87.38;98039.41;4996663;28;20054;-58
2022/02/23 00:32:56;;;;;;;6.25;1.20;;;;;;;1.01;87.95;98065.78;4995462;28;20121;-62
2022/02/23 00:35:22;;;;;;;5.20;1.40;;;;;;;0.98;88.04;98055.41;4996090;28;20050;-59
2022/02/23 00:37:48;;;;;;;5.03;1.48;;;;;;;1.01;87.54;98068.47;5012499;28;20126;-59
2022/02/23 00:40:13;;;;;;;5.68;1.40;;;;;;;0.97;88.48;98072.34;4995165;28;20054;-62
2022/02/23 00:42:39;;;;;;;5.05;1.17;;;;;;;0.98;87.85;98074.03;4995409;28;20045;-59
2022/02/23 00:45:05;;;;;;;5.85;1.65;;;;;;;0.98;87.94;98084.69;4997310;28;20098;-60
2022/02/23 00:47:31;;;;;;;4.60;1.23;;;;;;;0.84;88.09;98058.41;4997306;28;20049;-61
2022/02/23 00:49:57;;;;;;;4.32;1.15;;;;;;;0.96;88.19;98086.63;4995428;28;20042;-61
2022/02/23 00:52:23;;;;;;;4.25;1.10;;;;;;;0.88;88.23;98067.84;4995381;28;20494;-60
2022/02/23 00:54:48;;;;;;;4.43;1.17;;;;;;;0.95;88.03;98082.28;5011492;28;20486;-61
2022/02/23 00:57:15;;;;;;;5.22;1.35;;;;;;;0.98;87.83;98084.69;4995370;28;20038;-61
2022/02/23 00:59:42;;;;;;;4.32;1.17;;;;;;;0.97;88.55;98090.97;5011969;28;20056;-61
2022/02/23 01:02:08;;;;;;;4.53;1.10;;;;;;;0.98;88.13;98090.00;4994791;28;20058;-59
2022/02/23 01:04:33;;;;;;;4.40;1.25;;;;;;;0.96;87.94;98100.78;4994805;28;20497;-60
2022/02/23 01:06:59;;;;;;;5.38;1.40;;;;;;;0.95;88.32;98106.22;4978795;28;20049;-61
2022/02/23 01:09:25;;;;;;;5.47;1.25;;;;;;;0.97;87.96;98093.63;4996587;28;20446;-61
2022/02/23 01:11:51;;;;;;;4.57;0.88;;;;;;;0.92;88.12;98103.84;4992653;28;20464;-61
2022/02/23 01:14:17;;;;;;;5.35;1.40;;;;;;;0.85;88.50;98079.56;4991884;28;20042;-59
2022/02/23 01:16:43;;;;;;;5.22;1.25;;;;;;;0.81;87.97;98085.28;4993677;28;20402;-62
2022/02/23 01:19:09;;;;;;;6.55;1.63;;;;;;;0.91;88.86;98108.28;5008440;28;20058;-62
2022/02/23 01:21:35;;;;;;;4.82;1.25;;;;;;;0.92;89.09;98111.81;4975672;28;20050;-61
2022/02/23 01:24:01;;;;;;;4.70;1.20;;;;;;;0.91;89.11;98116.28;4991801;28;20043;-58
2022/02/23 01:26:27;;;;;;;6.20;1.60;;;;;;;0.95;89.34;98122.19;4991776;28;20184;-61
2022/02/23 01:28:52;;;;;;;4.88;1.30;;;;;;;0.94;88.75;98120.50;5008205;28;20047;-62
2022/02/23 01:31:20;;;;;;;5.55;1.13;;;;;;;0.93;89.03;98119.66;4992874;28;20579;-60
2022/02/23 01:33:46;;;;;;;5.82;1.98;;;;;;;0.92;89.26;98127.78;4975986;28;20529;-60
2022/02/23 01:36:12;;;;;;;6.50;1.40;;;;;;;0.91;89.03;98126.91;4992864;28;20050;-62
2022/02/23 01:38:37;;;;;;;4.22;1.25;;;;;;;0.73;89.54;98101.84;4992906;28;20046;-62
2022/02/23 01:41:03;;;;;;;6.18;1.60;;;;;;;0.89;89.42;98128.03;4991732;28;20093;-61
2022/02/23 01:43:30;;;;;;;4.63;1.20;;;;;;;0.87;90.03;98136.13;4992626;28;20434;-60
2022/02/23 01:45:56;;;;;;;6.97;1.52;;;;;;;0.89;90.04;98134.19;4992472;28;20125;-58
2022/02/23 01:48:22;;;;;;;4.82;1.30;;;;;;;0.85;90.13;98126.59;4991473;28;20054;-60
2022/02/23 01:50:48;;;;;;;5.38;1.30;;;;;;;0.82;90.23;98127.69;4943366;28;20042;-59
2022/02/23 01:53:14;;;;;;;4.65;1.23;;;;;;;0.84;90.84;98140.84;4991052;28;20053;-61
2022/02/23 01:55:40;;;;;;;6.22;1.45;;;;;;;0.80;90.56;98131.44;4975394;28;20042;-62
2022/02/23 01:58:06;;;;;;;6.65;1.50;;;;;;;0.56;90.12;98100.59;4992504;28;20061;-59
2022/02/23 02:00:32;;;;;;;5.03;1.20;;;;;;;0.80;89.54;98139.44;4991302;28;20054;-61
2022/02/23 02:02:59;;;;;;;5.65;1.55;;;;;;;0.85;89.98;98142.56;5007490;28;20486;-60
2022/02/23 02:05:25;;;;;;;4.15;1.30;;;;;;;0.82;90.07;98143.66;4974789;28;20081;-61
2022/02/23 02:07:50;;;;;;;5.72;1.63;;;;;;;0.79;89.69;98143.06;5007488;28;20169;-65
2022/02/23 02:10:16;;;;;;;5.72;1.38;;;;;;;0.87;89.83;98156.56;4974990;28;20065;-61
2022/02/23 02:12:42;;;;;;;4.80;1.38;;;;;;;0.81;89.94;98146.47;4992606;28;20116;-61
2022/02/23 02:15:08;;;;;;;5.25;1.50;;;;;;;0.84;90.15;98156.81;4992393;28;20061;-61
2022/02/23 02:17:36;;;;;;;5.28;1.58;;;;;;;0.82;90.56;98148.13;4990908;28;20137;-60
2022/02/23 02:20:03;;;;;;;4.40;1.25;;;;;;;0.83;91.11;98160.44;4991114;28;20454;-61
2022/02/23 02:22:29;;;;;;;5.05;1.23;;;;;;;0.82;91.16;98164.09;4990557;28;20069;-61
2022/02/23 02:24:56;;;;;;;4.72;1.27;;;;;;;0.83;90.84;98171.09;4974578;28;20097;-61
2022/02/23 02:27:22;;;;;;;5.18;1.30;;;;;;;0.63;91.03;98147.00;4974598;28;20562;-61
2022/02/23 02:29:48;;;;;;;5.60;1.55;;;;;;;0.79;91.56;98161.69;4991789;28;20111;-61
2022/02/23 02:32:17;;;;;;;5.28;1.30;;;;;;;0.82;90.17;98167.59;4992151;28;20124;-62
2022/02/23 02:34:44;;;;;;;4.28;1.40;;;;;;;0.79;91.00;98175.81;4974447;28;20153;-60
2022/02/23 02:37:10;;;;;;;5.70;1.50;;;;;;;0.79;90.64;98167.84;4990605;28;20077;-59
2022/02/23 02:39:36;;;;;;;6.00;1.55;;;;;;;0.81;91.09;98179.22;4974509;28;20057;-61
2022/02/23 02:42:03;;;;;;;4.53;1.10;;;;;;;0.74;90.67;98166.53;4991940;28;20414;-61
2022/02/23 02:44:29;;;;;;;6.10;1.52;;;;;;;0.72;90.98;98159.53;4990728;28;20069;-59
2022/02/23 02:46:55;;;;;;;5.53;1.40;;;;;;;0.75;91.62;98178.88;4957954;28;20042;-61
2022/02/23 02:49:20;;;;;;;4.10;1.30;;;;;;;0.80;91.02;98179.31;4990380;28;20061;-60
2022/02/23 02:51:47;;;;;;;4.50;1.40;;;;;;;0.71;91.66;98171.13;4991397;28;20141;-62
2022/02/23 02:54:13;;;;;;;5.97;1.40;;;;;;;0.77;92.14;98187.53;4989921;28;20050;-60
2022/02/23 02:56:40;;;;;;;4.03;1.25;;;;;;;0.77;92.15;98177.78;4989703;28;20094;-59
2022/02/23 02:59:06;;;;;;;4.20;1.20;;;;;;;0.79;92.24;98185.63;4973862;28;20062;-62
2022/02/23 03:01:33;;;;;;;6.00;1.48;;;;;;;0.80;92.54;98193.47;4991167;28;20046;-60
2022/02/23 03:03:59;;;;;;;4.53;1.40;;;;;;;0.76;92.26;98191.19;4991093;28;20144;-61
2022/02/23 03:06:25;;;;;;;5.43;1.30;;;;;;;0.56;93.13;98152.94;5006536;28;20488;-61
2022/02/23 03:08:52;;;;;;;5.13;1.23;;;;;;;0.74;93.17;98198.47;4990072;28;20046;-61
2022/02/23 03:11:18;;;;;;;5.15;1.23;;;;;;;0.71;93.66;98194.22;4993217;28;20042;-63
2022/02/23 03:13:44;;;;;;;6.35;1.50;;;;;;;0.70;93.43;98193.38;4991383;28;20054;-61
2022/02/23 03:16:13;;;;;;;4.95;1.35;;;;;;;0.66;93.35;98191.13;5008049;28;20115;-61
2022/02/23 03:18:39;;;;;;;5.15;1.48;;;;;;;0.66;93.38;98205.25;4990770;28;20104;-59
2022/02/23 03:21:06;;;;;;;6.75;1.63;;;;;;;0.65;94.35;98211.50;4990970;28;20052;-61
2022/02/23 03:23:32;;;;;;;5.55;1.70;;;;;;;0.63;93.91;98202.84;4990545;28;20399;-62
2022/02/23 03:25:57;;;;;;;5.30;1.50;;;;;;;0.61;94.72;98204.75;4989384;28;20050;-61
2022/02/23 03:28:23;;;;;;;6.55;1.50;;;;;;;0.63;94.72;98213.47;4989605;28;20061;-60
2022/02/23 03:30:49;;;;;;;5.00;1.30;;;;;;;0.61;94.09;98204.75;4989026;28;20053;-60
2022/02/23 03:33:16;;;;;;;5.45;1.55;;;;;;;0.65;94.03;98216.84;4973026;28;20095;-62
2022/02/23 03:35:44;;;;;;;6.55;1.75;;;;;;;0.50;93.22;98190.66;4990243;28;20509;-58
2022/02/23 03:38:10;;;;;;;5.60;1.50;;;;;;;0.58;94.09;98215.63;4973359;28;20220;-61
2022/02/23 03:40:37;;;;;;;6.03;1.70;;;;;;;0.58;94.16;98218.28;4989322;28;20473;-61
2022/02/23 03:43:04;;;;;;;5.97;1.73;;;;;;;0.54;94.40;98214.19;4989454;28;20052;-61
2022/02/23 03:45:30;;;;;;;5.40;1.50;;;;;;;0.41;95.04;98192.25;4973031;28;20053;-62
2022/02/23 03:47:56;;;;;;;6.78;1.80;;;;;;;0.59;95.15;98222.66;4989209;28;20050;-58
2022/02/23 03:50:21;;;;;;;5.53;1.50;;;;;;;0.56;95.11;98222.06;4990786;28;20077;-62
2022/02/23 03:52:47;;;;;;;5.68;1.40;;;;;;;0.57;95.71;98232.56;4972838;28;20129;-60
2022/02/23 03:55:13;;;;;;;5.95;1.70;;;;;;;0.49;96.24;98219.06;4989408;28;20086;-63
2022/02/23 03:57:39;;;;;;;6.78;2.08;;;;;;;0.54;96.52;98235.47;4989177;28;20053;-61
2022/02/23 04:00:09;;;;;;;6.88;1.77;;;;;;;0.50;96.58;98228.72;4972971;28;20043;-60
2022/02/23 04:02:38;;;;;;;6.22;1.67;;;;;;;0.52;96.69;98232.09;4989287;28;20050;-62
2022/02/23 04:05:06;;;;;;;5.22;1.50;;;;;;;0.51;97.00;98230.41;4988902;28;20050;-59
2022/02/23 04:07:33;;;;;;;5.70;1.70;;;;;;;0.32;97.11;98206.25;5006484;28;20050;-60
2022/02/23 04:09:59;;;;;;;5.55;1.63;;;;;;;0.47;97.02;98235.09;4975183;28;20051;-60
2022/02/23 04:12:25;;;;;;;5.47;1.40;;;;;;;0.44;97.42;98238.03;4990806;28;20160;-64
2022/02/23 04:14:51;;;;;;;6.53;1.88;;;;;;;0.41;97.06;98234.78;4974454;28;20050;-61
2022/02/23 04:17:17;;;;;;;6.15;1.60;;;;;;;0.33;98.33;98226.53;4988950;28;20188;-62
2022/02/23 04:19:43;;;;;;;5.03;1.40;;;;;;;0.38;98.05;98235.03;4972510;28;20418;-59
2022/02/23 04:22:09;;;;;;;5.75;1.52;;;;;;;0.34;98.70;98231.75;4988899;28;20050;-60
2022/02/23 04:24:34;;;;;;;6.10;1.63;;;;;;;0.33;99.07;98237.19;4988771;28;20050;-61
2022/02/23 04:27:01;;;;;;;6.75;1.70;;;;;;;0.32;98.15;98241.66;4988822;28;20514;-61
2022/02/23 04:29:27;;;;;;;5.90;1.92;;;;;;;0.30;98.73;98232.13;4989930;28;20489;-62
2022/02/23 04:31:53;;;;;;;7.85;1.80;;;;;;;0.30;99.11;98237.44;4989043;28;20049;-56
2022/02/23 04:34:19;;;;;;;7.43;2.10;;;;;;;0.12;99.46;98214.00;4972726;28;20051;-61
2022/02/23 04:36:46;;;;;;;7.38;2.20;;;;;;;0.24;99.80;98247.59;4973215;28;20046;-62
2022/02/23 04:39:12;;;;;;;7.35;1.90;;;;;;;0.20;99.37;98240.81;4989700;28;20116;-62
2022/02/23 04:41:38;;;;;;;6.00;1.90;;;;;;;0.15;100.00;98232.38;4989570;28;20053;-63
2022/02/23 04:44:04;;;;;;;7.22;2.10;;;;;;;0.07;100.00;98242.75;4989624;28;20051;-63
2022/02/23 04:46:30;;;;;;;7.43;2.28;;;;;;;0.16;100.00;98252.66;4993160;28;20038;-60
2022/02/23 04:48:56;;;;;;;6.85;2.50;;;;;;;0.11;100.00;98257.50;4992783;28;20184;-60
2022/02/23 04:51:23;;;;;;;6.28;2.10;;;;;;;0.12;100.00;98261.84;4976301;28;20220;-57
2022/02/23 04:53:49;;;;;;;8.10;2.42;;;;;;;0.09;100.00;98263.88;4976737;28;20046;-61
2022/02/23 04:56:15;;;;;;;7.00;2.58;;;;;;;0.03;100.00;98256.38;4976752;28;20598;-60
2022/02/23 04:58:41;;;;;;;7.18;2.38;;;;;;;0.01;100.00;98267.16;4976722;28;20133;-62
2022/02/23 05:01:07;;;;;;;7.57;2.65;;;;;;;0.03;100.00;98273.16;4994474;28;20052;-61
2022/02/23 05:03:33;;;;;;;9.15;2.78;;;;;;;-0.11;100.00;98250.34;4976370;28;20137;-62
2022/02/23 05:05:59;;;;;;;7.72;2.35;;;;;;;0.03;100.00;98273.16;5008656;28;20417;-62
2022/02/23 05:08:28;;;;;;;8.40;2.85;;;;;;;0.01;100.00;98269.81;5008251;28;20495;-60
2022/02/23 05:10:57;;;;;;;9.05;3.20;;;;;;;-0.21;100.00;98245.88;4992369;28;20053;-61
2022/02/23 05:13:25;;;;;;;7.28;2.45;;;;;;;-0.09;100.00;98280.28;4993507;28;20133;-61
2022/02/23 05:15:56;;;;;;;8.15;2.65;;;;;;;-0.04;100.00;98290.53;5008090;28;20144;-59
2022/02/23 05:18:29;;;;;;;8.00;2.80;;;;;;;-0.01;100.00;98287.66;4992701;28;20057;-60
2022/02/23 05:20:59;;;;;;;13.05;2.88;;;;;;;0.04;100.00;98305.88;4991892;28;20535;-63
2022/02/23 05:23:26;;;;;;;7.45;2.53;;;;;;;0.05;100.00;98307.59;4991838;28;20082;-63
2022/02/23 05:25:52;;;;;;;6.72;2.17;;;;;;;-0.01;100.00;98301.78;4975591;28;20457;-61
2022/02/23 05:28:18;;;;;;;7.97;3.17;;;;;;;-0.17;100.00;98281.84;4943914;28;20141;-61
2022/02/23 05:30:44;;;;;;;8.25;3.15;;;;;;;-0.03;100.00;98311.69;4975273;28;20510;-60
2022/02/23 05:33:10;;;;;;;10.60;3.63;;;;;;;0.04;100.00;98312.06;4993467;28;20046;-62
2022/02/23 05:35:36;;;;;;;8.93;3.50;;;;;;;-0.11;100.00;98299.94;4991248;28;20058;-60
2022/02/23 05:38:02;;;;;;;8.73;3.78;;;;;;;0.05;100.00;98320.88;4992266;28;20152;-61
2022/02/23 05:40:28;;;;;;;8.70;2.85;;;;;;;0.07;100.00;98317.13;4975188;28;20038;-61
2022/02/23 05:42:54;;;;;;;10.55;3.58;;;;;;;0.04;100.00;98312.06;4987795;28;20046;-65
2022/02/23 05:45:22;;;;;;;7.80;2.85;;;;;;;0.09;100.00;98325.84;4954412;28;20089;-64
2022/02/23 05:47:48;;;;;;;9.77;2.78;;;;;;;0.14;100.00;98334.28;4986685;28;20066;-64
2022/02/23 05:50:14;;;;;;;9.38;2.75;;;;;;;0.18;100.00;98335.78;4980129;28;20041;-64
2022/02/23 05:52:40;;;;;;;6.68;2.28;;;;;;;0.21;100.00;98345.28;4950401;28;20038;-64
2022/02/23 05:55:07;;;;;;;8.45;3.15;;;;;;;0.18;100.00;98329.59;4954637;28;20113;-64
2022/02/23 05:57:33;;;;;;;6.97;2.45;;;;;;;0.12;100.00;98335.41;4973377;28;20408;-64
2022/02/23 06:00:00;;;;;;;7.78;2.95;;;;;;;0.09;100.00;98338.28;4974512;28;20046;-64
2022/02/23 06:02:26;;;;;;;8.48;2.80;;;;;;;-0.05;100.00;98331.38;4966618;28;20204;-64
2022/02/23 06:04:52;;;;;;;10.38;2.80;;;;;;;0.09;100.00;98347.09;4976908;28;20534;-64
2022/02/23 06:07:29;;;;;;;6.72;2.30;;;;;;;0.12;100.00;98352.19;4972450;28;20046;-64
2022/02/23 06:09:55;;;;;;;7.93;2.45;;;;;;;0.03;100.00;98347.56;4945237;28;20066;-65
2022/02/23 06:12:21;;;;;;;6.40;2.33;;;;;;;0.12;100.00;98362.81;4984253;28;20113;-65
2022/02/23 06:14:47;;;;;;;7.97;2.92;;;;;;;0.05;100.00;98363.41;4969989;28;20050;-65
2022/02/23 06:17:13;;;;;;;6.53;2.22;;;;;;;0.13;100.00;98363.66;4962420;28;20426;-63
2022/02/23 06:19:39;;;;;;;7.07;2.58;;;;;;;0.06;100.00;98357.09;4976019;28;20046;-66
2022/02/23 06:22:05;;;;;;;7.65;2.63;;;;;;;0.20;100.00;98381.66;4972637;28;20046;-66
2022/02/23 06:24:30;;;;;;;6.60;2.22;;;;;;;0.23;100.00;98385.91;4977069;28;20050;-70
2022/02/23 06:26:57;;;;;;;7.07;2.45;;;;;;;0.26;100.00;98387.47;4945060;28;20053;-67
2022/02/23 06:29:23;;;;;;;6.45;2.25;;;;;;;0.24;100.00;98383.13;4976577;28;20053;-66
2022/02/23 06:32:03;;;;;;;7.10;2.80;;;;;;;0.27;100.00;98391.84;4987704;28;20046;-64
2022/02/23 06:34:29;;;;;;;6.78;2.20;;;;;;;0.32;100.00;98390.50;4965397;28;20690;-67
2022/02/23 06:36:55;;;;;;;7.50;2.45;;;;;;;0.33;100.00;98386.03;4952475;28;20043;-65
2022/02/23 06:39:21;;;;;;;8.48;2.35;;;;;;;0.37;100.00;98398.97;4957713;28;20370;-67
2022/02/23 06:41:48;;;;;;;6.70;2.30;;;;;;;0.39;100.00;98397.03;4952663;28;20125;-65
2022/02/23 06:44:18;;;;;;;8.63;2.40;;;;;;;0.46;100.00;98402.72;4998126;28;20043;-66
2022/02/23 06:46:44;;;;;;;6.63;2.08;;;;;;;0.44;100.00;98400.19;4974337;28;20061;-68
2022/02/23 06:49:10;;;;;;;9.07;2.47;;;;;;;0.49;100.00;98407.81;4963251;28;20035;-68
2022/02/23 06:51:36;;;;;;;7.43;2.08;;;;;;;0.52;100.00;98410.25;4937986;28;20411;-65
2022/02/23 06:54:02;;;;;;;6.50;2.30;;;;;;;0.55;100.00;98412.66;4959294;28;20511;-65
2022/02/23 06:56:28;;;;;;;6.72;2.47;;;;;;;0.58;100.00;98415.06;4990057;28;20046;-66
2022/02/23 06:58:54;;;;;;;6.50;2.10;;;;;;;0.67;100.00;98419.69;4956620;28;20080;-65
2022/02/23 07:01:20;;;;;;;5.88;1.80;;;;;;;0.79;100.00;98419.69;4958720;28;20242;-65
2022/02/23 07:03:48;;;;;;;6.75;2.13;;;;;;;0.61;100.00;98428.13;4976009;28;20173;-65
2022/02/23 07:06:14;;;;;;;6.43;1.83;;;;;;;0.69;100.00;98423.06;4991997;28;20141;-65
2022/02/23 07:08:45;;;;;;;6.68;2.30;;;;;;;0.67;100.00;98422.34;4983036;28;20046;-65
2022/02/23 07:11:11;;;;;;;6.68;1.80;;;;;;;0.70;100.00;98427.44;4987398;28;20042;-66
2022/02/23 07:13:37;;;;;;;6.05;1.88;;;;;;;0.66;100.00;98439.28;4962481;28;20148;-64
2022/02/23 07:16:04;;;;;;;6.05;1.88;;;;;;;0.67;100.00;98425.00;4943894;28;20220;-65
2022/02/23 07:18:30;;;;;;;7.57;2.10;;;;;;;0.69;100.00;98415.06;4960385;28;20058;-65
2022/02/23 07:20:56;;;;;;;7.30;1.98;;;;;;;0.82;100.00;98435.41;4990745;28;20046;-65
2022/02/23 07:23:22;;;;;;;5.90;1.80;;;;;;;0.84;99.73;98430.81;4957410;28;20080;-65
2022/02/23 07:25:51;;;;;;;6.82;1.85;;;;;;;0.85;99.77;98435.19;4944912;28;20042;-65
2022/02/23 07:28:18;;;;;;;7.68;2.00;;;;;;;0.90;99.27;98448.94;4982084;28;20056;-64
2022/02/23 07:30:45;;;;;;;6.53;1.65;;;;;;;0.84;98.31;98446.75;4966673;28;20064;-65
2022/02/23 07:33:13;;;;;;;7.20;1.48;;;;;;;0.87;97.71;98450.03;4975665;28;20050;-65
2022/02/23 07:35:39;;;;;;;5.05;1.38;;;;;;;0.87;97.61;98449.19;5001682;28;20149;-65
2022/02/23 07:38:08;;;;;;;6.13;1.80;;;;;;;0.89;97.06;98442.78;4974409;28;20110;-65
2022/02/23 07:40:34;;;;;;;6.35;1.83;;;;;;;1.05;96.42;98452.22;4972651;28;20073;-65
2022/02/23 07:43:00;;;;;;;8.52;2.65;;;;;;;1.14;96.29;98457.69;4951564;28;20474;-65
2022/02/23 07:45:27;;;;;;;6.85;1.40;;;;;;;1.27;95.17;98462.00;4986474;28;20100;-65
2022/02/23 07:47:53;;;;;;;9.60;1.65;;;;;;;1.35;93.88;98464.91;4984852;28;20122;-65
2022/02/23 07:50:19;;;;;;;5.30;1.30;;;;;;;1.41;94.43;98470.59;4994866;28;20090;-65
2022/02/23 07:52:49;;;;;;;6.07;1.75;;;;;;;1.47;93.83;98463.94;4962276;28;20045;-65
2022/02/23 07:55:16;;;;;;;5.30;1.80;;;;;;;1.52;92.50;98467.06;4967769;28;20038;-65
2022/02/23 07:57:42;;;;;;;5.22;1.40;;;;;;;1.55;91.94;98477.47;4998953;28;20041;-65
2022/02/23 08:00:09;;;;;;;7.78;2.05;;;;;;;1.46;91.84;98478.19;4962357;28;20047;-65
2022/02/23 08:02:39;;;;;;;7.78;2.10;;;;;;;1.30;92.42;98477.75;4983349;28;20089;-67
2022/02/23 08:05:06;;;;;;;5.95;1.50;;;;;;;1.09;93.55;98459.84;4975108;28;20132;-65
2022/02/23 08:07:32;;;;;;;9.40;1.70;;;;;;;1.37;93.73;98489.59;4986421;28;20070;-64
2022/02/23 08:09:58;;;;;;;6.78;1.58;;;;;;;1.22;92.36;98490.81;4956887;28;20053;-64
2022/02/23 08:12:26;;;;;;;4.43;1.25;;;;;;;1.09;92.72;98491.78;4949590;28;20149;-65
2022/02/23 08:14:54;;;;;;;5.70;1.50;;;;;;;1.08;92.83;98500.72;4990772;28;20046;-64
2022/02/23 08:20:08;;;;;;;11.07;1.48;;;;;;;0.96;92.32;98504.34;4974403;28;20042;-64
2022/02/23 08:22:35;;;;;;;6.82;1.77;;;;;;;1.02;93.50;98509.19;4942832;28;20118;-64
2022/02/23 08:25:02;;;;;;;5.55;1.50;;;;;;;1.12;92.22;98518.16;4948743;28;20588;-64
2022/02/23 08:27:31;;;;;;;6.60;1.85;;;;;;;1.07;91.50;98491.06;4964393;28;20057;-65
2022/02/23 08:29:57;;;;;;;5.68;1.60;;;;;;;1.20;90.89;98521.06;4959391;28;20090;-65
2022/02/23 08:32:24;;;;;;;6.00;1.60;;;;;;;1.21;90.76;98508.63;4972630;28;20041;-65
2022/02/23 08:34:51;;;;;;;6.60;1.67;;;;;;;1.34;89.99;98514.66;5001248;28;20137;-65
2022/02/23 08:37:18;;;;;;;5.93;1.70;;;;;;;1.33;88.93;98525.44;4967911;28;20447;-64
2022/02/23 08:39:45;;;;;;;5.65;1.70;;;;;;;1.41;89.03;98523.00;4997752;28;20084;-64
2022/02/23 08:42:13;;;;;;;5.35;1.42;;;;;;;1.44;88.10;98534.25;4999457;28;20066;-65
2022/02/23 08:44:39;;;;;;;6.30;1.85;;;;;;;1.51;87.69;98539.94;5009085;28;20060;-64
2022/02/23 08:47:07;;;;;;;6.22;1.60;;;;;;;1.51;87.42;98537.28;5001534;28;20034;-65
2022/02/23 08:49:33;;;;;;;5.55;1.65;;;;;;;1.42;87.25;98546.00;4974154;28;20065;-66
2022/02/23 08:51:59;;;;;;;6.68;1.83;;;;;;;1.53;86.57;98540.66;4982865;28;20053;-66
2022/02/23 08:54:25;;;;;;;6.68;1.73;;;;;;;1.42;86.90;98546.00;4983207;28;20038;-65
2022/02/23 08:56:51;;;;;;;6.85;1.90;;;;;;;1.44;86.27;98544.06;4986946;28;20042;-64
2022/02/23 08:59:17;;;;;;;5.38;1.42;;;;;;;1.53;85.76;98553.13;4953315;28;20053;-64
2022/02/23 09:01:43;;;;;;;6.32;1.50;;;;;;;1.50;86.03;98548.91;4974118;28;20051;-65
2022/02/23 09:04:10;;;;;;;8.80;2.78;;;;;;;1.50;85.90;98553.38;4977295;28;20069;-65
2022/02/23 09:06:39;;;;;;;9.20;2.30;;;;;;;1.46;85.25;98558.09;4953933;28;20613;-65
2022/02/23 09:09:07;;;;;;;9.38;1.95;;;;;;;1.33;84.98;98552.06;4989404;28;20144;-65
2022/02/23 09:11:33;;;;;;;6.25;1.95;;;;;;;1.33;85.09;98568.03;4974764;28;20503;-65
2022/02/23 09:13:59;;;;;;;7.95;1.98;;;;;;;1.33;85.71;98573.34;4993015;28;20051;-65
2022/02/23 09:16:25;;;;;;;6.50;1.70;;;;;;;1.42;84.71;98576.13;4958720;28;20123;-65
2022/02/23 09:18:51;;;;;;;6.78;1.90;;;;;;;1.35;85.16;98568.75;4969842;28;20054;-64
2022/02/23 09:21:17;;;;;;;7.70;1.58;;;;;;;1.35;84.91;98584.72;4975968;28;20486;-65
2022/02/23 09:23:43;;;;;;;5.45;1.55;;;;;;;1.47;85.05;98581.13;4993324;28;20052;-65
2022/02/23 09:26:09;;;;;;;6.97;2.28;;;;;;;1.47;84.95;98591.75;4953546;28;20046;-66
2022/02/23 09:28:37;;;;;;;8.50;2.13;;;;;;;1.51;84.87;98592.38;4943822;28;20047;-68
2022/02/23 09:31:07;;;;;;;5.93;1.58;;;;;;;1.56;84.03;98596.34;4961496;28;20117;-67
2022/02/23 09:33:33;;;;;;;7.97;2.38;;;;;;;1.82;83.87;98599.63;4966882;28;20041;-64
2022/02/23 09:36:02;;;;;;;7.45;1.88;;;;;;;1.80;84.02;98598.06;4955426;28;20054;-70
2022/02/23 09:38:32;;;;;;;6.82;1.65;;;;;;;1.92;82.62;98570.44;4976860;28;20205;-64
2022/02/23 09:41:00;;;;;;;5.45;1.60;;;;;;;2.29;82.11;98600.28;4966654;28;20052;-65
2022/02/23 09:43:27;;;;;;;6.15;1.75;;;;;;;2.34;80.12;98602.56;4999435;28;20136;-65
2022/02/23 09:45:54;;;;;;;6.57;2.55;;;;;;;2.12;82.29;98604.34;4959584;28;20068;-65
2022/02/23 09:48:22;;;;;;;6.25;1.60;;;;;;;2.17;81.25;98607.47;4973240;28;20050;-65
2022/02/23 09:50:50;;;;;;;5.63;1.58;;;;;;;1.98;81.39;98617.91;4975475;28;20114;-65
2022/02/23 09:53:17;;;;;;;7.00;1.75;;;;;;;1.96;82.46;98619.84;4991000;28;20058;-65
2022/02/23 09:55:43;;;;;;;6.78;1.90;;;;;;;1.98;82.54;98625.06;5003045;28;20490;-65
2022/02/23 09:58:09;;;;;;;6.72;1.80;;;;;;;1.84;83.12;98629.66;4964358;28;20071;-65
2022/02/23 10:00:35;;;;;;;5.80;1.73;;;;;;;1.76;82.59;98631.25;4992320;28;20048;-66
2022/02/23 10:03:02;;;;;;;7.80;2.22;;;;;;;1.71;82.67;98626.25;4971916;28;20046;-66
2022/02/23 10:05:37;;;;;;;6.65;1.77;;;;;;;1.93;82.30;98646.72;4944824;28;20039;-65
2022/02/23 10:08:05;;;;;;;7.03;2.17;;;;;;;1.81;81.80;98647.72;4958059;28;20588;-65
2022/02/23 10:10:35;;;;;;;7.13;1.98;;;;;;;1.64;82.18;98647.19;4963966;28;20041;-64
2022/02/23 10:13:03;;;;;;;7.32;1.85;;;;;;;1.62;82.88;98651.81;4993828;28;20050;-65
2022/02/23 10:15:38;;;;;;;8.23;1.80;;;;;;;1.61;82.95;98642.13;4973303;28;20054;-69
2022/02/23 10:18:07;;;;;;;8.75;2.50;;;;;;;1.69;82.55;98671.69;4986328;28;20634;-66
2022/02/23 10:20:38;;;;;;;7.22;2.20;;;;;;;1.76;82.48;98666.72;4957833;28;20043;-66
2022/02/23 10:23:15;;;;;;;6.63;1.90;;;;;;;1.80;81.43;98670.00;4956731;28;20039;-65
2022/02/23 10:25:43;;;;;;;6.47;1.63;;;;;;;1.77;81.85;98664.91;4977754;28;20152;-66
2022/02/23 10:28:17;;;;;;;8.10;2.08;;;;;;;1.59;81.78;98644.06;4973511;28;20572;-70
2022/02/23 10:30:55;;;;;;;6.95;2.03;;;;;;;1.84;81.87;98687.44;4993787;28;20046;-65
2022/02/23 10:33:26;;;;;;;7.10;2.00;;;;;;;1.67;83.23;98686.09;4985800;28;20431;-65
2022/02/23 10:35:55;;;;;;;6.68;2.03;;;;;;;1.59;84.33;98700.00;4973882;28;20050;-65
2022/02/23 10:38:27;;;;;;;6.60;1.88;;;;;;;1.48;84.25;98702.63;4990430;28;20046;-65
2022/02/23 10:40:57;;;;;;;5.78;1.60;;;;;;;1.42;83.59;98684.47;4989365;28;20038;-65
2022/02/23 10:43:36;;;;;;;6.97;1.95;;;;;;;1.34;83.73;98708.16;4961824;28;20062;-65
2022/02/23 10:46:11;;;;;;;6.95;2.15;;;;;;;1.32;84.54;98710.13;4985911;28;20127;-66
2022/02/23 10:48:43;;;;;;;8.40;2.10;;;;;;;1.44;84.59;98715.34;4972007;28;20579;-65
2022/02/23 10:51:11;;;;;;;7.68;2.65;;;;;;;1.54;84.50;98726.16;4998891;28;20335;-64
2022/02/23 10:53:38;;;;;;;6.95;2.13;;;;;;;1.40;83.82;98697.06;4958159;28;20573;-65
2022/02/23 10:56:26;;;;;;;8.27;1.52;;;;;;;1.57;83.30;98723.25;4974036;28;20403;-66
2022/02/23 10:59:11;;;;;;;9.15;1.80;;;;;;;1.52;82.53;98725.41;4987162;28;20077;-65
2022/02/23 11:01:39;;;;;;;8.30;2.10;;;;;;;1.57;83.25;98731.25;4955256;28;20059;-65
2022/02/23 11:04:06;;;;;;;6.93;1.98;;;;;;;1.60;83.99;98736.31;4986822;28;20102;-65
2022/02/23 11:06:32;;;;;;;6.88;1.77;;;;;;;1.58;80.23;98727.59;4985468;28;20046;-64
2022/02/23 11:08:58;;;;;;;6.22;1.73;;;;;;;1.56;78.08;98729.53;4955141;28;20047;-64
2022/02/23 11:11:26;;;;;;;5.22;1.30;;;;;;;1.68;78.27;98733.06;4970840;28;20503;-64
2022/02/23 11:13:53;;;;;;;7.35;1.40;;;;;;;1.82;77.92;98751.50;4970719;28;20390;-65
2022/02/23 11:16:19;;;;;;;5.47;1.50;;;;;;;1.86;77.94;98752.97;4954532;28;20062;-66
2022/02/23 11:18:50;;;;;;;3.65;1.00;;;;;;;1.76;77.76;98757.31;4938950;28;20529;-64
2022/02/23 11:21:18;;;;;;;6.22;1.60;;;;;;;1.65;79.04;98763.47;4970989;28;20093;-65
2022/02/23 11:23:46;;;;;;;5.07;1.38;;;;;;;1.48;78.94;98758.56;4958646;28;20042;-66
2022/02/23 11:26:15;;;;;;;4.85;1.63;;;;;;;1.34;79.28;98756.09;4976188;28;20050;-66
2022/02/23 11:28:47;;;;;;;6.13;1.65;;;;;;;1.36;79.44;98770.16;4966073;28;20074;-65
2022/02/23 11:31:14;;;;;;;5.70;1.40;;;;;;;1.29;78.99;98776.91;4978719;28;20046;-65
2022/02/23 11:33:46;;;;;;;4.43;1.13;;;;;;;1.25;79.47;98778.09;4977749;28;20061;-66
2022/02/23 11:36:31;;;;;;;5.65;1.42;;;;;;;1.37;79.76;98787.81;4974828;28;20043;-65
2022/02/23 11:39:05;;;;;;;7.47;1.52;;;;;;;1.14;77.39;98770.91;4969240;28;20046;-65
2022/02/23 11:41:34;;;;;;;7.05;1.92;;;;;;;1.37;77.77;98801.13;4972633;28;20046;-65